Time;durP1;ratioP1;P1;durP2;ratioP2;P2;SDS_P1;SDS_P2;PMS_P1;PMS_P2;Temp;Humidity;BMP_temperature;BMP_pressure;BME280_temperature;BME280_humidity;BME280_pressure;Samples;Min_cycle;Max_cycle;Signal;HPM_P1;HPM_P2
2022/10/05 00:00:25;;;;;;;4.15;3.05;;;;;;;;;;4957843;28;20047;-63
2022/10/05 00:02:53;;;;;;;5.30;3.10;;;;;;;;;;4960885;28;20057;-61
2022/10/05 00:05:31;;;;;;;4.57;3.13;;;;;;;;;;4957522;28;20031;-66
2022/10/05 00:08:21;;;;;;;6.78;3.30;;;;;;;;;;4955804;28;20027;-62
2022/10/05 00:10:48;;;;;;;4.90;2.95;;;;;;;;;;4949872;28;20109;-62
2022/10/05 00:13:21;;;;;;;3.53;2.47;;;;;;;;;;4953649;28;20039;-62
2022/10/05 00:15:48;;;;;;;3.30;2.63;;;;;;;;;;4961343;28;20126;-63
2022/10/05 00:18:19;;;;;;;3.85;2.60;;;;;;;;;;4962859;28;20031;-63
2022/10/05 00:20:47;;;;;;;8.75;3.08;;;;;;;;;;4968621;28;20401;-63
2022/10/05 00:23:27;;;;;;;4.75;2.92;;;;;;;;;;4983536;28;20049;-63
2022/10/05 00:25:53;;;;;;;4.55;2.75;;;;;;;;;;4967863;28;20038;-63
2022/10/05 00:28:26;;;;;;;6.50;2.70;;;;;;;;;;4963941;28;20082;-63
2022/10/05 00:30:57;;;;;;;3.65;2.38;;;;;;;;;;4969062;28;20038;-62
2022/10/05 00:33:23;;;;;;;2.60;2.20;;;;;;;;;;4947576;28;20130;-62
2022/10/05 00:35:49;;;;;;;4.25;2.20;;;;;;;;;;4969653;28;20485;-63
2022/10/05 00:38:15;;;;;;;5.47;2.35;;;;;;;;;;4968365;28;20093;-62
2022/10/05 00:41:00;;;;;;;6.05;2.30;;;;;;;;;;4962657;28;20231;-62
2022/10/05 00:43:47;;;;;;;3.25;2.10;;;;;;;;;;4963374;28;20122;-63
2022/10/05 00:46:21;;;;;;;4.85;2.63;;;;;;;;;;4956192;28;20114;-63
2022/10/05 00:48:59;;;;;;;;;;;;;;;;;;4967561;28;20118;-62
2022/10/05 00:51:37;;;;;;;5.03;2.50;;;;;;;;;;4978179;28;19922;-63
2022/10/05 00:54:33;;;;;;;5.50;2.63;;;;;;;;;;4961746;28;20031;-63
2022/10/05 00:57:01;;;;;;;6.65;2.50;;;;;;;;;;4972412;28;20039;-62
2022/10/05 01:00:04;;;;;;;2.85;2.33;;;;;;;;;;4966910;28;20525;-63
2022/10/05 01:02:43;;;;;;;4.35;2.30;;;;;;;;;;4971584;28;20093;-62
2022/10/05 01:05:44;;;;;;;5.13;2.30;;;;;;;;;;4987780;28;20347;-63
2022/10/05 01:08:39;;;;;;;3.28;2.13;;;;;;;;;;4927318;28;20490;-63
2022/10/05 01:11:27;;;;;;;3.90;2.40;;;;;;;;;;4975500;28;20035;-63
2022/10/05 01:13:56;;;;;;;3.45;2.10;;;;;;;;;;4963822;28;20043;-63
2022/10/05 01:16:49;;;;;;;5.90;1.88;;;;;;;;;;4962978;28;20026;-62
2022/10/05 01:19:33;;;;;;;2.17;1.88;;;;;;;;;;4967526;28;20057;-62
2022/10/05 01:22:25;;;;;;;6.43;1.90;;;;;;;;;;4964193;28;20041;-62
2022/10/05 01:25:10;;;;;;;5.45;1.90;;;;;;;;;;4962988;28;20117;-61
2022/10/05 01:28:02;;;;;;;4.32;1.83;;;;;;;;;;4962878;28;20039;-62
2022/10/05 01:30:46;;;;;;;4.18;2.05;;;;;;;;;;4968564;28;20408;-62
2022/10/05 01:34:04;;;;;;;10.02;2.92;;;;;;;;;;4970600;28;20038;-63
2022/10/05 01:36:49;;;;;;;4.15;2.40;;;;;;;;;;4895701;29;20281;-62
2022/10/05 01:39:48;;;;;;;3.83;1.92;;;;;;;;;;4968238;28;20046;-62
2022/10/05 01:42:40;;;;;;;3.10;2.17;;;;;;;;;;4963998;28;20046;-61
2022/10/05 01:45:34;;;;;;;2.72;1.85;;;;;;;;;;4963669;28;20039;-62
2022/10/05 01:48:10;;;;;;;4.40;2.10;;;;;;;;;;4963677;28;20038;-62
2022/10/05 01:50:55;;;;;;;3.30;2.00;;;;;;;;;;4973026;28;20038;-63
2022/10/05 01:53:46;;;;;;;4.05;1.80;;;;;;;;;;4955278;28;20039;-61
2022/10/05 01:56:31;;;;;;;4.47;2.00;;;;;;;;;;4971525;28;20468;-63
2022/10/05 01:59:26;;;;;;;2.92;2.10;;;;;;;;;;4964770;28;20057;-62
2022/10/05 02:02:06;;;;;;;6.32;2.33;;;;;;;;;;4970271;28;20051;-62
2022/10/05 02:04:53;;;;;;;4.35;2.17;;;;;;;;;;4975392;28;20031;-62
2022/10/05 02:07:41;;;;;;;3.13;2.13;;;;;;;;;;4973277;28;20125;-63
2022/10/05 02:10:16;;;;;;;3.65;2.10;;;;;;;;;;4974163;28;20046;-65
2022/10/05 02:12:44;;;;;;;6.97;2.72;;;;;;;;;;4976121;28;20047;-62
2022/10/05 02:15:17;;;;;;;3.63;2.25;;;;;;;;;;4959399;28;20114;-61
2022/10/05 02:17:48;;;;;;;4.68;2.50;;;;;;;;;;4963696;28;20050;-62
2022/10/05 02:20:28;;;;;;;3.45;2.10;;;;;;;;;;4980787;28;20503;-61
2022/10/05 02:23:02;;;;;;;2.75;1.90;;;;;;;;;;4979293;28;20039;-61
2022/10/05 02:25:30;;;;;;;;;;;;;;;;;;4985824;28;20100;-60
2022/10/05 02:28:20;;;;;;;4.00;2.20;;;;;;;;;;4960744;28;19922;-61
2022/10/05 02:30:55;;;;;;;10.32;2.97;;;;;;;;;;4960113;28;20447;-62
2022/10/05 02:33:31;;;;;;;5.10;2.60;;;;;;;;;;4955762;28;20027;-62
2022/10/05 02:36:42;;;;;;;5.20;2.10;;;;;;;;;;4988152;28;20405;-61
2022/10/05 02:39:14;;;;;;;4.30;2.10;;;;;;;;;;4940583;28;20046;-61
2022/10/05 02:41:58;;;;;;;6.40;2.72;;;;;;;;;;4988703;28;20269;-61
2022/10/05 02:44:36;;;;;;;6.25;2.00;;;;;;;;;;4972067;28;20394;-62
2022/10/05 02:47:20;;;;;;;7.43;1.85;;;;;;;;;;4971946;28;20031;-62
2022/10/05 02:50:11;;;;;;;9.27;3.22;;;;;;;;;;4972690;28;20038;-62
2022/10/05 02:52:56;;;;;;;8.70;3.13;;;;;;;;;;4986152;28;20042;-62
2022/10/05 02:55:43;;;;;;;4.70;2.30;;;;;;;;;;4988456;28;20066;-62
2022/10/05 02:58:15;;;;;;;7.40;2.20;;;;;;;;;;4988796;28;20560;-62
2022/10/05 03:00:55;;;;;;;7.53;2.03;;;;;;;;;;4988154;28;20106;-62
2022/10/05 03:03:44;;;;;;;12.43;2.63;;;;;;;;;;4981627;28;20098;-62
2022/10/05 03:06:25;;;;;;;6.78;2.50;;;;;;;;;;4986815;28;20031;-62
2022/10/05 03:09:01;;;;;;;5.85;2.45;;;;;;;;;;4956137;28;20057;-62
2022/10/05 03:11:46;;;;;;;8.73;2.40;;;;;;;;;;4970264;28;20378;-62
2022/10/05 03:14:30;;;;;;;6.43;2.85;;;;;;;;;;4970287;28;20038;-62
2022/10/05 03:16:59;;;;;;;;;;;;;;;;;;4971227;28;20027;-62
2022/10/05 03:19:48;;;;;;;8.63;2.50;;;;;;;;;;4987132;28;20064;-61
2022/10/05 03:22:18;;;;;;;6.05;2.28;;;;;;;;;;4987952;28;20121;-63
2022/10/05 03:24:56;;;;;;;5.00;2.53;;;;;;;;;;4973374;28;20027;-62
2022/10/05 03:27:32;;;;;;;5.43;2.35;;;;;;;;;;4972330;28;20073;-62
2022/10/05 03:30:21;;;;;;;5.18;2.40;;;;;;;;;;4969887;28;20490;-64
2022/10/05 03:33:10;;;;;;;6.80;2.60;;;;;;;;;;4972001;28;20038;-64
2022/10/05 03:36:10;;;;;;;3.53;2.30;;;;;;;;;;4971755;28;20497;-61
2022/10/05 03:38:44;;;;;;;6.72;2.22;;;;;;;;;;4973056;28;20046;-63
2022/10/05 03:41:37;;;;;;;7.72;2.85;;;;;;;;;;4972337;28;20031;-63
2022/10/05 03:44:40;;;;;;;3.95;2.20;;;;;;;;;;4950235;28;20374;-60
2022/10/05 03:47:25;;;;;;;3.95;2.25;;;;;;;;;;4968567;28;20034;-65
2022/10/05 03:49:59;;;;;;;4.43;2.65;;;;;;;;;;4971030;28;20070;-60
2022/10/05 03:52:39;;;;;;;12.68;3.38;;;;;;;;;;4970831;28;20494;-62
2022/10/05 03:55:43;;;;;;;3.80;2.30;;;;;;;;;;4971374;28;20046;-61
2022/10/05 03:58:20;;;;;;;5.68;2.35;;;;;;;;;;4968245;28;20046;-62
2022/10/05 04:00:52;;;;;;;5.70;2.47;;;;;;;;;;4969404;28;20047;-62
2022/10/05 04:03:37;;;;;;;5.55;2.22;;;;;;;;;;4971885;28;20101;-65
2022/10/05 04:06:26;;;;;;;4.65;2.13;;;;;;;;;;4971139;28;20172;-63
2022/10/05 04:09:03;;;;;;;5.70;2.67;;;;;;;;;;4966969;28;20143;-62
2022/10/05 04:11:41;;;;;;;7.65;2.88;;;;;;;;;;4958098;28;20498;-62
2022/10/05 04:14:17;;;;;;;10.77;3.08;;;;;;;;;;4970051;28;20035;-64
2022/10/05 04:16:55;;;;;;;5.43;2.72;;;;;;;;;;4962415;28;20035;-62
2022/10/05 04:19:53;;;;;;;8.13;2.53;;;;;;;;;;4972025;28;20071;-63
2022/10/05 04:22:30;;;;;;;6.47;2.95;;;;;;;;;;4986529;28;20488;-63
2022/10/05 04:25:44;;;;;;;8.50;3.42;;;;;;;;;;4970470;28;20366;-62
2022/10/05 04:28:25;;;;;;;9.25;2.50;;;;;;;;;;4938372;28;20573;-62
2022/10/05 04:30:53;;;;;;;7.78;2.83;;;;;;;;;;4973287;28;20043;-64
2022/10/05 04:33:20;;;;;;;6.93;2.35;;;;;;;;;;4975817;28;20041;-62
2022/10/05 04:36:05;;;;;;;7.88;2.75;;;;;;;;;;4990230;28;20035;-63
2022/10/05 04:38:43;;;;;;;3.92;2.78;;;;;;;;;;4973312;28;20031;-64
2022/10/05 04:41:28;;;;;;;5.47;2.35;;;;;;;;;;4975861;28;20093;-64
2022/10/05 04:44:12;;;;;;;7.13;3.10;;;;;;;;;;4976097;28;20537;-62
2022/10/05 04:47:06;;;;;;;7.15;2.88;;;;;;;;;;4976178;28;20397;-62
2022/10/05 04:50:06;;;;;;;2.97;2.17;;;;;;;;;;4976042;28;20031;-62
2022/10/05 04:52:43;;;;;;;13.23;3.75;;;;;;;;;;4992051;28;20393;-62
2022/10/05 04:55:18;;;;;;;7.70;2.78;;;;;;;;;;4976384;28;20458;-64
2022/10/05 04:58:02;;;;;;;9.18;3.47;;;;;;;;;;4975987;28;20034;-62
2022/10/05 05:00:41;;;;;;;4.97;3.65;;;;;;;;;;4976146;28;20046;-61
2022/10/05 05:03:29;;;;;;;5.18;2.42;;;;;;;;;;4976073;28;20034;-62
2022/10/05 05:06:33;;;;;;;5.28;2.35;;;;;;;;;;4977371;28;20034;-63
2022/10/05 05:09:04;;;;;;;3.40;2.47;;;;;;;;;;4943208;28;20149;-62
2022/10/05 05:11:49;;;;;;;4.77;2.40;;;;;;;;;;4975581;28;20126;-63
2022/10/05 05:14:27;;;;;;;9.25;3.35;;;;;;;;;;4975393;28;20389;-67
2022/10/05 05:17:18;;;;;;;14.55;3.40;;;;;;;;;;4976909;28;20046;-62
2022/10/05 05:20:15;;;;;;;5.85;2.85;;;;;;;;;;4976993;28;20035;-61
2022/10/05 05:23:03;;;;;;;10.27;2.50;;;;;;;;;;4991544;28;20034;-62
2022/10/05 05:25:37;;;;;;;7.47;2.67;;;;;;;;;;4975064;28;20117;-62
2022/10/05 05:28:28;;;;;;;8.45;2.70;;;;;;;;;;4974941;28;20138;-62
2022/10/05 05:31:49;;;;;;;13.70;3.50;;;;;;;;;;4976271;28;20061;-62
2022/10/05 05:34:32;;;;;;;8.55;2.90;;;;;;;;;;4991435;28;20045;-63
2022/10/05 05:37:14;;;;;;;5.72;2.45;;;;;;;;;;4991289;28;20050;-62
2022/10/05 05:40:02;;;;;;;9.13;2.67;;;;;;;;;;4976394;28;20031;-62
2022/10/05 05:43:01;;;;;;;14.85;2.80;;;;;;;;;;4991525;28;20125;-62
2022/10/05 05:45:41;;;;;;;11.65;3.00;;;;;;;;;;4991460;28;20394;-63
2022/10/05 05:48:17;;;;;;;9.27;3.15;;;;;;;;;;4974915;28;20042;-62
2022/10/05 05:50:59;;;;;;;7.57;3.30;;;;;;;;;;4990299;28;20038;-71
2022/10/05 05:53:33;;;;;;;13.77;3.22;;;;;;;;;;4989008;28;20765;-69
2022/10/05 05:56:08;;;;;;;11.90;3.03;;;;;;;;;;4974232;28;20034;-69
2022/10/05 05:58:53;;;;;;;12.35;3.53;;;;;;;;;;4974392;28;20102;-67
2022/10/05 06:02:03;;;;;;;12.35;3.22;;;;;;;;;;4974471;28;20051;-69
2022/10/05 06:04:53;;;;;;;11.10;2.92;;;;;;;;;;4990268;28;20126;-71
2022/10/05 06:07:24;;;;;;;20.85;2.92;;;;;;;;;;4990911;28;20174;-70
2022/10/05 06:10:34;;;;;;;11.55;2.72;;;;;;;;;;4990231;28;20481;-70
2022/10/05 06:13:14;;;;;;;9.73;2.53;;;;;;;;;;4965830;28;20117;-70
2022/10/05 06:15:58;;;;;;;9.50;2.75;;;;;;;;;;4975274;28;20039;-73
2022/10/05 06:18:24;;;;;;;16.20;3.25;;;;;;;;;;4990297;28;20062;-69
2022/10/05 06:21:19;;;;;;;13.50;2.83;;;;;;;;;;4974453;28;20027;-70
2022/10/05 06:23:54;;;;;;;15.48;3.35;;;;;;;;;;4975391;28;20374;-70
2022/10/05 06:26:45;;;;;;;10.30;2.70;;;;;;;;;;4990447;28;20042;-69
2022/10/05 06:29:19;;;;;;;7.85;2.28;;;;;;;;;;4974496;28;20478;-70
2022/10/05 06:32:04;;;;;;;12.63;2.45;;;;;;;;;;4973647;28;20035;-70
2022/10/05 06:34:44;;;;;;;6.32;2.30;;;;;;;;;;4989476;28;20065;-71
2022/10/05 06:37:27;;;;;;;12.00;2.55;;;;;;;;;;4973667;28;20114;-70
2022/10/05 06:40:11;;;;;;;6.72;2.47;;;;;;;;;;4973602;28;20489;-68
2022/10/05 06:43:06;;;;;;;8.18;2.20;;;;;;;;;;4987528;28;20069;-70
2022/10/05 06:45:53;;;;;;;5.78;1.75;;;;;;;;;;4975041;28;20113;-70
2022/10/05 06:48:49;;;;;;;9.73;2.13;;;;;;;;;;4973769;28;20030;-68
2022/10/05 06:52:05;;;;;;;9.77;2.53;;;;;;;;;;4954874;28;20039;-70
2022/10/05 06:54:49;;;;;;;5.00;1.73;;;;;;;;;;4956446;28;20113;-71
2022/10/05 06:57:36;;;;;;;2.35;1.88;;;;;;;;;;4972661;28;20041;-68
2022/10/05 07:00:33;;;;;;;3.40;1.70;;;;;;;;;;4988133;28;20080;-71
2022/10/05 07:03:04;;;;;;;3.47;1.77;;;;;;;;;;4956830;28;20484;-69
2022/10/05 07:05:34;;;;;;;5.03;1.90;;;;;;;;;;4972448;28;20058;-70
2022/10/05 07:08:07;;;;;;;3.92;1.92;;;;;;;;;;4971978;28;20090;-70
2022/10/05 07:10:39;;;;;;;5.20;1.80;;;;;;;;;;4973818;28;20030;-67
2022/10/05 07:13:29;;;;;;;4.80;2.00;;;;;;;;;;4968933;28;20062;-67
2022/10/05 07:16:02;;;;;;;4.32;1.88;;;;;;;;;;4971705;28;20045;-69
2022/10/05 07:18:48;;;;;;;4.72;1.70;;;;;;;;;;4971082;28;20097;-67
2022/10/05 07:21:17;;;;;;;2.95;1.48;;;;;;;;;;4973139;28;20082;-68
2022/10/05 07:24:21;;;;;;;3.80;1.48;;;;;;;;;;4969096;28;20063;-67
2022/10/05 07:27:21;;;;;;;2.38;1.80;;;;;;;;;;4986918;28;20122;-67
2022/10/05 07:30:03;;;;;;;8.35;2.13;;;;;;;;;;4978702;28;20182;-68
2022/10/05 07:32:34;;;;;;;2.63;1.50;;;;;;;;;;4984052;28;20038;-68
2022/10/05 07:35:07;;;;;;;3.78;1.52;;;;;;;;;;4967742;28;20035;-69
2022/10/05 07:37:53;;;;;;;3.67;1.60;;;;;;;;;;4977734;28;20433;-69
2022/10/05 07:40:48;;;;;;;3.50;1.77;;;;;;;;;;4986064;28;20047;-70
2022/10/05 07:43:38;;;;;;;3.55;2.00;;;;;;;;;;4957321;28;20134;-69
2022/10/05 07:46:25;;;;;;;6.97;1.77;;;;;;;;;;4958002;28;20035;-66
2022/10/05 07:49:02;;;;;;;3.35;1.77;;;;;;;;;;4970008;28;20561;-66
2022/10/05 07:51:37;;;;;;;5.68;1.88;;;;;;;;;;4982620;28;20118;-68
2022/10/05 07:54:29;;;;;;;6.00;1.70;;;;;;;;;;4985993;28;20086;-70
2022/10/05 07:57:17;;;;;;;2.53;1.63;;;;;;;;;;4985162;28;20039;-69
2022/10/05 07:59:49;;;;;;;3.40;1.77;;;;;;;;;;4971194;28;20039;-68
2022/10/05 08:02:44;;;;;;;2.75;2.00;;;;;;;;;;4985151;28;20050;-71
2022/10/05 08:05:17;;;;;;;;;;;;;;;;;;4971759;28;20692;-67
2022/10/05 08:07:43;;;;;;;7.30;1.80;;;;;;;;;;4970716;28;20284;-68
2022/10/05 08:10:32;;;;;;;2.67;1.52;;;;;;;;;;4972463;28;20481;-69
2022/10/05 08:13:15;;;;;;;3.58;1.55;;;;;;;;;;4971674;28;20121;-69
2022/10/05 08:15:47;;;;;;;2.08;1.70;;;;;;;;;;4964945;28;20030;-69
2022/10/05 08:18:12;;;;;;;3.80;1.63;;;;;;;;;;4970801;28;20050;-67
2022/10/05 08:20:52;;;;;;;2.75;1.60;;;;;;;;;;4971633;28;20030;-68
2022/10/05 08:23:24;;;;;;;3.13;1.90;;;;;;;;;;4972011;28;20031;-69
2022/10/05 08:26:08;;;;;;;2.92;1.55;;;;;;;;;;4977159;28;20120;-69
2022/10/05 08:28:55;;;;;;;4.85;1.70;;;;;;;;;;4992777;28;20045;-67
2022/10/05 08:31:36;;;;;;;2.33;1.60;;;;;;;;;;4989146;28;20045;-68
2022/10/05 08:34:23;;;;;;;2.58;1.70;;;;;;;;;;4994270;28;20075;-71
2022/10/05 08:37:13;;;;;;;5.60;1.50;;;;;;;;;;4984093;28;20030;-68
2022/10/05 08:39:49;;;;;;;3.13;1.58;;;;;;;;;;4991240;28;20035;-68
2022/10/05 08:42:51;;;;;;;10.25;2.85;;;;;;;;;;4991545;28;20062;-69
2022/10/05 08:45:28;;;;;;;3.08;1.60;;;;;;;;;;4988338;28;20512;-68
2022/10/05 08:48:00;;;;;;;2.85;1.70;;;;;;;;;;4952686;29;20122;-69
2022/10/05 08:50:44;;;;;;;5.28;1.60;;;;;;;;;;4952835;28;20127;-69
2022/10/05 08:53:28;;;;;;;2.75;1.75;;;;;;;;;;4971719;28;20042;-68
2022/10/05 08:56:12;;;;;;;3.22;1.70;;;;;;;;;;4971979;28;20023;-70
2022/10/05 08:59:09;;;;;;;2.83;1.50;;;;;;;;;;4970181;28;20394;-69
2022/10/05 09:01:54;;;;;;;3.00;1.60;;;;;;;;;;4971507;28;20125;-68
2022/10/05 09:04:46;;;;;;;2.80;1.50;;;;;;;;;;4972128;28;20390;-69
2022/10/05 09:08:00;;;;;;;4.32;1.50;;;;;;;;;;4943546;28;20058;-69
2022/10/05 09:10:26;;;;;;;3.15;1.50;;;;;;;;;;4986965;28;20046;-69
2022/10/05 09:13:42;;;;;;;3.95;1.70;;;;;;;;;;4971600;28;20043;-69
2022/10/05 09:16:33;;;;;;;2.63;1.75;;;;;;;;;;4940911;28;20038;-68
2022/10/05 09:19:23;;;;;;;3.13;1.52;;;;;;;;;;4975280;28;20436;-68
2022/10/05 09:22:13;;;;;;;4.50;1.70;;;;;;;;;;4975587;28;20043;-69
2022/10/05 09:25:00;;;;;;;5.63;1.85;;;;;;;;;;4974410;28;20512;-69
2022/10/05 09:27:42;;;;;;;5.25;1.60;;;;;;;;;;4975949;28;20043;-69
2022/10/05 09:30:23;;;;;;;3.33;1.48;;;;;;;;;;4976026;28;20497;-68
2022/10/05 09:33:09;;;;;;;2.95;1.70;;;;;;;;;;4975924;28;20038;-68
2022/10/05 09:35:49;;;;;;;8.30;2.20;;;;;;;;;;4976069;28;20041;-68
2022/10/05 09:38:42;;;;;;;4.00;1.70;;;;;;;;;;4974603;28;20509;-69
2022/10/05 09:41:45;;;;;;;5.93;2.17;;;;;;;;;;4975380;28;20058;-68
2022/10/05 09:45:06;;;;;;;7.65;1.70;;;;;;;;;;4965939;28;20030;-67
2022/10/05 09:47:50;;;;;;;6.57;1.67;;;;;;;;;;4973590;28;20042;-69
2022/10/05 09:50:39;;;;;;;8.63;2.35;;;;;;;;;;4973828;28;20041;-68
2022/10/05 09:53:39;;;;;;;4.53;1.45;;;;;;;;;;4972577;28;20043;-67
2022/10/05 09:56:33;;;;;;;2.85;1.52;;;;;;;;;;4974709;28;20046;-68
2022/10/05 09:59:36;;;;;;;4.05;1.90;;;;;;;;;;4973588;28;20031;-68
2022/10/05 10:02:21;;;;;;;4.10;1.75;;;;;;;;;;4973218;28;20059;-68
2022/10/05 10:05:15;;;;;;;5.22;2.10;;;;;;;;;;4974359;28;20027;-68
2022/10/05 10:08:00;;;;;;;9.60;2.40;;;;;;;;;;4973927;28;20039;-69
2022/10/05 10:10:31;;;;;;;2.38;1.60;;;;;;;;;;4973579;28;20034;-68
2022/10/05 10:13:23;;;;;;;4.60;1.63;;;;;;;;;;4972502;28;20081;-68
2022/10/05 10:16:07;;;;;;;2.70;1.50;;;;;;;;;;4973151;28;20035;-68
2022/10/05 10:18:39;;;;;;;2.72;1.65;;;;;;;;;;4974529;28;20033;-68
2022/10/05 10:21:28;;;;;;;4.68;1.70;;;;;;;;;;4974829;28;20027;-68
2022/10/05 10:24:09;;;;;;;4.10;1.30;;;;;;;;;;4974300;28;20133;-67
2022/10/05 10:26:49;;;;;;;2.10;1.58;;;;;;;;;;4973515;28;20029;-68
2022/10/05 10:29:44;;;;;;;5.00;1.60;;;;;;;;;;4973892;28;20728;-68
2022/10/05 10:32:29;;;;;;;6.50;2.42;;;;;;;;;;4969600;28;20043;-68
2022/10/05 10:35:13;;;;;;;3.60;1.60;;;;;;;;;;4974043;28;20038;-66
2022/10/05 10:37:51;;;;;;;2.97;1.80;;;;;;;;;;4973786;28;20034;-67
2022/10/05 10:40:20;;;;;;;7.22;1.85;;;;;;;;;;4973374;28;20035;-67
2022/10/05 10:42:58;;;;;;;3.05;1.40;;;;;;;;;;4974287;28;20034;-68
2022/10/05 10:45:47;;;;;;;4.85;1.83;;;;;;;;;;4973942;28;20042;-69
2022/10/05 10:48:18;;;;;;;5.75;1.92;;;;;;;;;;4972405;28;20089;-70
2022/10/05 10:51:03;;;;;;;2.67;1.55;;;;;;;;;;4973738;28;20445;-66
2022/10/05 10:53:44;;;;;;;2.38;1.50;;;;;;;;;;4973605;28;20458;-67
2022/10/05 10:56:28;;;;;;;6.25;1.65;;;;;;;;;;4972756;28;20103;-67
2022/10/05 10:59:31;;;;;;;5.55;1.58;;;;;;;;;;4988177;28;20511;-67
2022/10/05 11:01:57;;;;;;;8.13;1.97;;;;;;;;;;4953793;28;20039;-68
2022/10/05 11:04:38;;;;;;;5.95;3.10;;;;;;;;;;4973835;28;20285;-68
2022/10/05 11:07:32;;;;;;;5.22;1.73;;;;;;;;;;4972807;28;20097;-67
2022/10/05 11:10:10;;;;;;;2.90;1.80;;;;;;;;;;4973427;28;20060;-67
2022/10/05 11:12:48;;;;;;;3.42;1.40;;;;;;;;;;4973566;28;20070;-67
2022/10/05 11:15:23;;;;;;;3.67;1.48;;;;;;;;;;4972632;28;20030;-67
2022/10/05 11:18:35;;;;;;;3.53;1.95;;;;;;;;;;4971239;28;20042;-67
2022/10/05 11:21:32;;;;;;;3.35;1.50;;;;;;;;;;4937381;28;20140;-68
2022/10/05 11:24:29;;;;;;;5.20;1.70;;;;;;;;;;4987262;28;20505;-66
2022/10/05 11:27:10;;;;;;;6.35;1.55;;;;;;;;;;4951835;29;20035;-67
2022/10/05 11:29:50;;;;;;;3.20;1.73;;;;;;;;;;4968344;28;20071;-67
2022/10/05 11:32:48;;;;;;;4.30;2.22;;;;;;;;;;4967984;28;20129;-69
2022/10/05 11:35:45;;;;;;;2.95;1.60;;;;;;;;;;4940185;28;20047;-67
2022/10/05 11:38:42;;;;;;;2.42;1.63;;;;;;;;;;4969875;28;20121;-67
2022/10/05 11:41:27;;;;;;;2.90;1.73;;;;;;;;;;4985480;28;20039;-68
2022/10/05 11:44:14;;;;;;;3.85;2.10;;;;;;;;;;4970741;28;20042;-68
2022/10/05 11:47:10;;;;;;;3.85;1.58;;;;;;;;;;4972119;28;20446;-67
2022/10/05 11:49:49;;;;;;;4.93;1.70;;;;;;;;;;4973112;28;20042;-67
2022/10/05 11:52:29;;;;;;;1.77;1.40;;;;;;;;;;4971634;28;20075;-67
2022/10/05 11:55:31;;;;;;;3.15;1.48;;;;;;;;;;4972608;28;20707;-67
2022/10/05 11:58:07;;;;;;;2.85;1.70;;;;;;;;;;4973797;28;20062;-65
2022/10/05 12:00:42;;;;;;;3.92;1.50;;;;;;;;;;4971278;28;20046;-66
2022/10/05 12:03:15;;;;;;;3.55;1.77;;;;;;;;;;4972241;28;20076;-67
2022/10/05 12:05:56;;;;;;;;;;;;;;;;;;4974017;28;20031;-66
2022/10/05 12:08:33;;;;;;;2.72;1.70;;;;;;;;;;4986235;28;19917;-67
2022/10/05 12:11:23;;;;;;;3.67;1.70;;;;;;;;;;4966204;28;20485;-68
2022/10/05 12:14:15;;;;;;;2.35;1.60;;;;;;;;;;4967919;28;20038;-67
2022/10/05 12:16:54;;;;;;;3.15;1.48;;;;;;;;;;4967149;28;20060;-66
2022/10/05 12:19:28;;;;;;;4.40;1.52;;;;;;;;;;4970420;28;20119;-66
2022/10/05 12:22:09;;;;;;;4.38;1.40;;;;;;;;;;4972772;28;20498;-67
2022/10/05 12:24:35;;;;;;;5.55;1.50;;;;;;;;;;4961658;28;20031;-66
2022/10/05 12:27:21;;;;;;;3.90;1.58;;;;;;;;;;4970574;28;20038;-67
2022/10/05 12:30:04;;;;;;;3.33;1.77;;;;;;;;;;4970186;28;20053;-67
2022/10/05 12:32:43;;;;;;;5.00;1.50;;;;;;;;;;4972669;28;20050;-68
2022/10/05 12:35:30;;;;;;;3.13;1.40;;;;;;;;;;4971128;28;20034;-67
2022/10/05 12:38:02;;;;;;;3.30;1.42;;;;;;;;;;4972798;28;20089;-66
2022/10/05 12:40:45;;;;;;;4.45;1.55;;;;;;;;;;4971174;28;20182;-67
2022/10/05 12:43:32;;;;;;;3.90;1.60;;;;;;;;;;4972190;28;20053;-68
2022/10/05 12:46:21;;;;;;;4.45;1.50;;;;;;;;;;4979926;28;20039;-68
2022/10/05 12:49:04;;;;;;;1.55;1.27;;;;;;;;;;4951270;29;20032;-68
2022/10/05 12:51:39;;;;;;;5.60;1.42;;;;;;;;;;4955070;28;20035;-67
2022/10/05 12:54:26;;;;;;;2.28;1.20;;;;;;;;;;4957672;28;20032;-67
2022/10/05 12:57:00;;;;;;;3.33;2.05;;;;;;;;;;4956890;29;20162;-66
2022/10/05 12:59:46;;;;;;;4.07;1.60;;;;;;;;;;4957554;28;20046;-67
2022/10/05 13:02:30;;;;;;;10.18;4.40;;;;;;;;;;4957359;29;20075;-67
2022/10/05 13:05:25;;;;;;;4.65;1.90;;;;;;;;;;4957093;28;20047;-67
2022/10/05 13:08:06;;;;;;;4.32;1.92;;;;;;;;;;4957349;28;20039;-68
2022/10/05 13:10:40;;;;;;;1.45;1.20;;;;;;;;;;4956720;29;20382;-68
2022/10/05 13:13:12;;;;;;;2.22;1.40;;;;;;;;;;4956754;29;20097;-68
2022/10/05 13:16:10;;;;;;;2.17;1.45;;;;;;;;;;4957168;29;20439;-67
2022/10/05 13:18:49;;;;;;;4.75;1.52;;;;;;;;;;4956881;29;20031;-67
2022/10/05 13:21:37;;;;;;;2.47;1.40;;;;;;;;;;4957178;28;20040;-68
2022/10/05 13:24:22;;;;;;;9.65;1.60;;;;;;;;;;4976329;28;20117;-66
2022/10/05 13:26:55;;;;;;;2.42;1.38;;;;;;;;;;4976217;28;20035;-68
2022/10/05 13:29:47;;;;;;;6.05;1.63;;;;;;;;;;4976435;28;20038;-67
2022/10/05 13:32:18;;;;;;;2.97;1.70;;;;;;;;;;4976109;28;20049;-67
2022/10/05 13:34:56;;;;;;;2.83;1.50;;;;;;;;;;4975869;28;20082;-67
2022/10/05 13:38:00;;;;;;;1.45;1.25;;;;;;;;;;4975587;28;20037;-68
2022/10/05 13:40:56;;;;;;;4.55;1.85;;;;;;;;;;4975507;28;20066;-67
2022/10/05 13:43:48;;;;;;;4.47;1.67;;;;;;;;;;4976214;28;20118;-67
2022/10/05 13:46:27;;;;;;;2.95;1.55;;;;;;;;;;4975910;28;20041;-67
2022/10/05 13:48:58;;;;;;;1.95;1.40;;;;;;;;;;4974984;28;20035;-66
2022/10/05 13:51:42;;;;;;;4.30;1.90;;;;;;;;;;4975629;28;20041;-67
2022/10/05 13:54:27;;;;;;;3.92;1.73;;;;;;;;;;4976005;28;20077;-67
2022/10/05 13:57:05;;;;;;;2.90;1.48;;;;;;;;;;4975273;28;20045;-68
2022/10/05 13:59:48;;;;;;;4.97;2.05;;;;;;;;;;4975803;28;20062;-67
2022/10/05 14:02:20;;;;;;;4.45;1.50;;;;;;;;;;4988638;28;20055;-69
2022/10/05 14:04:56;;;;;;;5.22;1.60;;;;;;;;;;4975882;28;20062;-67
2022/10/05 14:07:48;;;;;;;2.78;1.45;;;;;;;;;;4976059;28;20520;-68
2022/10/05 14:10:47;;;;;;;1.92;1.60;;;;;;;;;;4970396;28;20047;-69
2022/10/05 14:13:28;;;;;;;5.05;1.77;;;;;;;;;;4975271;28;20150;-68
2022/10/05 14:16:17;;;;;;;3.22;1.50;;;;;;;;;;4975668;28;20031;-68
2022/10/05 14:19:13;;;;;;;2.10;1.40;;;;;;;;;;4974681;28;20023;-67
2022/10/05 14:22:00;;;;;;;5.82;1.50;;;;;;;;;;4975494;28;20169;-67
2022/10/05 14:24:30;;;;;;;2.53;1.40;;;;;;;;;;4971761;28;20035;-67
2022/10/05 14:26:58;;;;;;;2.55;1.50;;;;;;;;;;4973232;28;20030;-68
2022/10/05 14:29:34;;;;;;;3.22;1.55;;;;;;;;;;4974929;28;20031;-67
2022/10/05 14:32:15;;;;;;;1.88;1.50;;;;;;;;;;4974246;28;20046;-67
2022/10/05 14:34:55;;;;;;;5.35;1.63;;;;;;;;;;4974646;28;20031;-68
2022/10/05 14:37:43;;;;;;;2.50;1.40;;;;;;;;;;4974181;28;20493;-68
2022/10/05 14:40:25;;;;;;;1.77;1.20;;;;;;;;;;4974069;28;20455;-68
2022/10/05 14:42:52;;;;;;;3.72;1.60;;;;;;;;;;4974593;28;20062;-68
2022/10/05 14:45:20;;;;;;;3.10;1.50;;;;;;;;;;4973982;28;20030;-68
2022/10/05 14:47:58;;;;;;;4.10;1.60;;;;;;;;;;4973557;28;20049;-67
2022/10/05 14:50:28;;;;;;;1.92;1.50;;;;;;;;;;4973636;28;20142;-66
2022/10/05 14:53:15;;;;;;;3.85;1.92;;;;;;;;;;4973843;28;20034;-68
2022/10/05 14:56:00;;;;;;;6.07;1.55;;;;;;;;;;4988445;28;20045;-66
2022/10/05 14:58:47;;;;;;;4.05;1.92;;;;;;;;;;4973989;28;20393;-67
2022/10/05 15:01:26;;;;;;;2.88;1.52;;;;;;;;;;4971973;28;20094;-67
2022/10/05 15:04:25;;;;;;;3.47;1.67;;;;;;;;;;4973609;28;20390;-67
2022/10/05 15:07:23;;;;;;;2.92;1.65;;;;;;;;;;4973597;28;20042;-68
2022/10/05 15:10:01;;;;;;;4.22;1.63;;;;;;;;;;4987951;28;20037;-68
2022/10/05 15:12:34;;;;;;;7.28;2.10;;;;;;;;;;4973267;28;20043;-66
2022/10/05 15:15:10;;;;;;;5.53;2.22;;;;;;;;;;4973185;28;20030;-68
2022/10/05 15:17:51;;;;;;;3.75;1.70;;;;;;;;;;4973074;28;20537;-70
2022/10/05 15:20:56;;;;;;;2.00;1.63;;;;;;;;;;4972205;28;20504;-66
2022/10/05 15:23:41;;;;;;;3.38;1.75;;;;;;;;;;4956048;28;20046;-66
2022/10/05 15:26:10;;;;;;;5.07;1.40;;;;;;;;;;4973226;28;20109;-67
2022/10/05 15:28:47;;;;;;;2.25;1.70;;;;;;;;;;4988308;28;20073;-66
2022/10/05 15:31:29;;;;;;;4.45;1.98;;;;;;;;;;4965765;28;20421;-67
2022/10/05 15:34:02;;;;;;;3.97;1.60;;;;;;;;;;4956767;28;20093;-66
2022/10/05 15:36:55;;;;;;;3.47;1.60;;;;;;;;;;4953595;29;20042;-65
2022/10/05 15:39:33;;;;;;;5.77;2.63;;;;;;;;;;4953995;29;20089;-66
2022/10/05 15:42:15;;;;;;;3.00;1.70;;;;;;;;;;4954541;29;20122;-66
2022/10/05 15:45:05;;;;;;;3.15;1.92;;;;;;;;;;4954684;28;20058;-65
2022/10/05 15:47:44;;;;;;;4.82;1.85;;;;;;;;;;4968974;28;20031;-67
2022/10/05 15:50:49;;;;;;;7.53;1.80;;;;;;;;;;4954024;28;20031;-66
2022/10/05 15:53:18;;;;;;;4.57;2.03;;;;;;;;;;4954057;29;20522;-67
2022/10/05 15:56:20;;;;;;;5.72;2.22;;;;;;;;;;4954629;28;20060;-66
2022/10/05 15:59:07;;;;;;;4.85;2.20;;;;;;;;;;4969129;28;20042;-65
2022/10/05 16:01:33;;;;;;;7.28;2.22;;;;;;;;;;4952377;29;20052;-66
2022/10/05 16:04:02;;;;;;;6.05;1.85;;;;;;;;;;4953673;29;20123;-67
2022/10/05 16:09:44;;;;;;;7.47;2.05;;;;;;;;;;4953845;29;20426;-65
2022/10/05 16:12:20;;;;;;;8.45;2.10;;;;;;;;;;4954086;28;20394;-66
2022/10/05 16:14:56;;;;;;;5.82;2.10;;;;;;;;;;4954142;28;20545;-70
2022/10/05 16:17:34;;;;;;;7.18;2.53;;;;;;;;;;4969490;28;20039;-66
2022/10/05 16:20:06;;;;;;;3.53;1.98;;;;;;;;;;4973111;28;20398;-69
2022/10/05 16:22:45;;;;;;;3.13;2.03;;;;;;;;;;4991681;28;20404;-68